Home > Products > Valid Products > TAF

000
FTUS44 KJAN 240100 AAA
TAFJAN
TAF AMD
KJAN 240123Z 2401/2424 19009G16KT P6SM SKC
     FM241300 30010G17KT P6SM SKC=



000
FTUS44 KJAN 240100 AAA
TAFGLH
TAF AMD
KGLH 240122Z 2401/2424 18010KT P6SM SCT020
     FM240630 24018G27KT P6SM BKN025
     FM241300 29014KT P6SM SKC=



000
FTUS44 KJAN 240100 AAA
TAFGWO
TAF AMD
KGWO 240122Z 2401/2424 19010KT P6SM SCT019
     FM240700 22015G24KT P6SM BKN019
     FM241400 29011G18KT P6SM SKC=



000
FTUS44 KJAN 232300 RRA
TAFMEI
TAF
KMEI 232346Z 2400/2424 20010G17KT P6SM SCT030
     FM240900 22010G17KT P6SM BKN010
     FM241400 30010G17KT P6SM FEW030=



000
FTUS44 KJAN 232300 RRA
TAFJAN
TAF
KJAN 232346Z 2400/2424 21010G17KT P6SM FEW030
     FM241300 30010G17KT P6SM SKC=



000
FTUS44 KJAN 232300 RRA
TAFGWO
TAF
KGWO 232346Z 2400/2424 19013KT P6SM BKN014
     FM240700 22015G24KT P6SM BKN019
     FM241400 29011G18KT P6SM SKC=



000
FTUS44 KJAN 232300 RRA
TAFGLH
TAF
KGLH 232346Z 2400/2424 20015KT P6SM BKN019
     FM240630 24018G27KT P6SM BKN025
     FM241300 29014KT P6SM SKC=



000
FTUS44 KJAN 232300 RRA
TAFHBG
TAF
KHBG 232346Z 2400/2424 18009G16KT P6SM SCT030
     FM240800 20008G16KT 6SM BR BKN009
     FM241400 30010G17KT P6SM FEW030 SCT250=



000
FTUS44 KJAN 231700
TAFGLH
TAF
KGLH 231732Z 2318/2418 13018G25KT P6SM -RA BKN015 OVC025
     FM232100 19014G24KT P6SM -RA SCT007 BKN015
     FM232300 20013KT P6SM OVC025
     FM240200 21017G27KT P6SM FEW040=



000
FTUS44 KJAN 231700
TAFJAN
TAF
KJAN 231732Z 2318/2418 19015G24KT P6SM SCT015 BKN025
      TEMPO 2318/2321 BKN015 OVC035
     FM232100 20014G24KT P6SM FEW050=



000
FTUS44 KJAN 231700
TAFMEI
TAF
KMEI 231732Z 2318/2418 18014KT P6SM -RA SCT015 BKN025 OVC110
     FM232000 20011G19KT P6SM VCSH SCT025 OVC110
     FM240000 21010KT P6SM FEW050
     FM241600 30012G18KT P6SM SKC=



000
FTUS44 KJAN 231700
TAFHBG
TAF
KHBG 231732Z 2318/2418 18013G20KT P6SM -RA SCT025 OVC100
     FM240200 19010KT P6SM SCT250
     FM241600 31012G18KT P6SM SKC=



000
FTUS44 KJAN 231700
TAFGWO
TAF
KGWO 231732Z 2318/2418 13010KT P6SM -RA SCT015 BKN080 OVC110
      TEMPO 2318/2321 18015G25KT BKN015 OVC040
     FM232100 19014G24KT P6SM VCSH BKN015
     FM240000 20017G26KT P6SM FEW040=



000
FTUS44 KJAN 231600 AAA
TAFGLH
TAF AMD
KGLH 231633Z 2317/2412 13013KT P6SM -RA OVC006
     FM232100 19014G24KT P6SM -RA SCT007 BKN015
     FM232300 20013KT P6SM OVC025
     FM240200 21017G27KT P6SM FEW040=



000
FTUS44 KJAN 231600 AAA
TAFMEI
TAF AMD
KMEI 231630Z 2317/2412 17011KT P6SM -RA SCT010 BKN025 OVC050
     FM232000 20011G19KT P6SM VCSH SCT025 OVC100
     FM240000 21010KT P6SM FEW050=



000
FTUS44 KJAN 231600 AAA
TAFHBG
TAF AMD
KHBG 231627Z 2316/2412 18011KT P6SM -RA SCT025 OVC100
     FM231800 20014G24KT P6SM BKN110
     FM232100 19012G22KT P6SM SKC
     FM240200 19010KT P6SM SCT250=



000
FTUS44 KJAN 231100 RRA
TAFGLH
TAF
KGLH 231140Z 2312/2412 13013KT P6SM -SHRA OVC014
     FM231700 19014G24KT P6SM VCSH BKN015
     FM232200 20013KT P6SM OVC025
     FM240000 21017G27KT P6SM FEW040=



000
FTUS44 KJAN 231100 RRA
TAFHBG
TAF
KHBG 231140Z 2312/2412 11008KT 2SM SHRA BR OVC003
     FM231500 18011KT 3SM TSRA BR OVC007CB
     FM231800 20014G24KT P6SM OVC025
     FM232100 19012G22KT P6SM SKC
     FM240200 19010KT P6SM SCT250=



000
FTUS44 KJAN 231100 RRA
TAFMEI
TAF
KMEI 231140Z 2312/2412 13006KT 3SM BR OVC004
     FM231400 14010KT 5SM SHRA BR OVC007
     FM231700 20015G24KT P6SM VCSH BKN015
     FM232000 20011G19KT P6SM BKN025
     FM240000 21010KT P6SM FEW050=



000
FTUS44 KJAN 231100 RRA
TAFJAN
TAF
KJAN 231140Z 2312/2412 14010G18KT 4SM -RA BR OVC006
     FM231900 20015G24KT P6SM OVC015
     FM232100 20014G24KT P6SM FEW050=



000
FTUS44 KJAN 231100 RRA
TAFGWO
TAF
KGWO 231140Z 2312/2412 13010KT 5SM SHRA BR OVC009
     FM231800 19014G24KT P6SM VCSH BKN015
     FM240000 20017G26KT P6SM FEW040=



000
FTUS44 KJAN 230500
TAFHBG
TAF
KHBG 230520Z 2306/2406 13008KT P6SM VCSH OVC009
     FM231100 13008KT 4SM -TSRA BR OVC015CB
     FM231330 18011G25KT 2SM TSRA BR OVC007CB
     FM231700 21013G24KT P6SM FEW040
     FM240000 19012G22KT P6SM SKC=



000
FTUS44 KJAN 230500
TAFMEI
TAF
KMEI 230520Z 2306/2406 13008KT P6SM BKN008 OVC040
     FM231300 14012G20KT 6SM -TSRA BR OVC010CB
     FM231500 15014G21KT 3SM TSRA BR OVC007CB
     FM231800 20015G24KT P6SM VCSH FEW030 BKN050
     FM240000 19014G23KT P6SM FEW050=



000
FTUS44 KJAN 230500
TAFGLH
TAF
KGLH 230520Z 2306/2406 13010KT P6SM SCT120 BKN250
     FM230730 12010KT P6SM BKN015 OVC080
     FM230900 11012KT 6SM -SHRA OVC010
     FM231200 12012KT 4SM -TSRA OVC007CB
     FM231700 20016G26KT P6SM VCSH SCT020 BKN040
     FM240000 21017G27KT P6SM FEW040=



000
FTUS44 KJAN 230500
TAFGWO
TAF
KGWO 230520Z 2306/2406 10008KT P6SM FEW030 SCT120 BKN250
     FM230700 11009KT P6SM BKN015 OVC080
     FM231130 11010KT 6SM -SHRA OVC009
     FM231300 12012KT 4SM -TSRA OVC007CB
     FM231830 19014G24KT P6SM VCSH SCT020 BKN040
     FM240000 20017G26KT P6SM FEW040=



000
FTUS44 KJAN 230500
TAFJAN
TAF
KJAN 230520Z 2306/2406 13010KT P6SM BKN015 BKN035 OVC150
     FM231130 13012G21KT 6SM -TSRA BR OVC010CB
     FM231300 15014G21KT 3SM TSRA BR OVC007CB
     FM231630 20015G24KT P6SM FEW030 BKN050
     FM240000 20014G24KT P6SM FEW050=



000
FTUS44 KJAN 222300 RRA
TAFHBG
TAF
KHBG 222352Z 2300/2324 13006KT P6SM FEW010 BKN028 OVC200
     FM230400 13008KT P6SM VCSH BKN015 OVC025
     FM231000 13008KT 4SM -TSRA BR OVC015CB
     FM231300 18011G25KT 2SM TSRA BR OVC007CB
     FM231700 21013G24KT P6SM VCSH FEW040=



000
FTUS44 KJAN 222300 RRA
TAFGWO
TAF
KGWO 222352Z 2300/2324 13008KT P6SM FEW120 BKN250
     FM230830 13010KT P6SM BKN012 OVC080
     FM231130 11010KT 6SM -SHRA OVC009
     FM231300 12012KT 4SM -TSRA OVC007CB
     FM231730 19014G24KT P6SM VCSH SCT020 BKN040=



000
FTUS44 KJAN 222300 RRA
TAFMEI
TAF
KMEI 222352Z 2300/2324 12006KT P6SM SCT040 SCT150 BKN250
     FM230200 13008KT P6SM FEW008 BKN025 OVC200
     FM230700 13009KT P6SM VCSH BKN008 OVC040
     FM231130 14012G20KT 6SM -TSRA BR OVC010CB
     FM231400 15014G21KT 3SM TSRA BR OVC007CB
     FM231800 20015G24KT P6SM VCSH FEW030 BKN050=



000
FTUS44 KJAN 222300 RRA
TAFGLH
TAF
KGLH 222352Z 2300/2324 14010KT P6SM SCT120 BKN250
     FM230700 12010KT P6SM BKN012 OVC080
     FM231000 11012KT 6SM -SHRA OVC009
     FM231200 12012KT 4SM -TSRA OVC007CB
     FM231600 20016G26KT P6SM VCSH SCT020 BKN040=



000
FTUS44 KJAN 222300 RRA
TAFJAN
TAF
KJAN 222352Z 2300/2324 13008KT P6SM SCT120 BKN200
     FM230600 13010KT P6SM BKN010 BKN035 OVC150
     FM231000 13012G21KT 6SM -TSRA BR OVC010CB
     FM231300 15014G21KT 3SM TSRA BR OVC007CB
     FM231700 20015G24KT P6SM VCSH FEW030 BKN050=



000
FTUS44 KJAN 221700 RRA
TAFGLH
TAF
KGLH 221750Z 2218/2318 15012KT P6SM SCT120
     FM230700 12010KT P6SM BKN012 OVC080
     FM231100 11014KT 4SM SHRA OVC010
     FM231300 10013KT 4SM -RA BR OVC007
     FM231700 19015G22KT P6SM -RA OVC007=



000
FTUS44 KJAN 221700 RRA
TAFGWO
TAF
KGWO 221750Z 2218/2318 16012G20KT P6SM BKN110
     FM222200 16010KT P6SM SCT250
     FM230700 13010KT P6SM BKN012 OVC080
     FM231200 12013KT 4SM SHRA BR OVC010
     FM231400 13015G21KT 6SM -RA BR OVC007=



000
FTUS44 KJAN 221700 RRA
TAFHBG
TAF
KHBG 221750Z 2218/2318 13010G16KT P6SM SCT050 BKN150
     FM230600 14010KT P6SM OVC025
     FM230900 12006KT 4SM -RA BR OVC015
     FM231300 18011KT 2SM TSRA BR OVC007CB
     FM231700 19010G17KT 3SM -TSRA BR OVC025CB=



000
FTUS44 KJAN 221700 RRA
TAFJAN
TAF
KJAN 221750Z 2218/2318 14011G17KT P6SM SCT110
     FM230500 13010KT P6SM BKN010 BKN035
     FM231100 14015G21KT 6SM -RA BR OVC015
     FM231400 14014G21KT 4SM TSRA BR OVC007CB
     FM231700 18014G21KT P6SM -RA BKN050=



000
FTUS44 KJAN 221700 RRA
TAFMEI
TAF
KMEI 221750Z 2218/2318 14011G17KT P6SM SCT150
     FM230200 14010KT P6SM BKN008 OVC025
     FM230700 15009KT P6SM OVC015
     FM231200 14015G21KT 6SM -RA BR OVC015
     FM231400 14014G21KT 4SM TSRA BR OVC007CB
     FM231700 18014G21KT P6SM -RA BKN050=



000
FTUS44 KJAN 221100
TAFMEI
TAF
KMEI 221137Z 2212/2312 13008KT P6SM SCT050 SCT150
     FM230200 14010KT P6SM BKN008 OVC025=



000
FTUS44 KJAN 221100
TAFGWO
TAF
KGWO 221137Z 2212/2312 14010KT P6SM BKN090
     FM230500 13010KT P6SM BKN012 OVC080
     FM231000 12013KT 4SM TSRA OVC010CB=



000
FTUS44 KJAN 221100
TAFGLH
TAF
KGLH 221137Z 2212/2312 15011KT P6SM BKN080
     FM230400 12010KT P6SM BKN012 OVC080
     FM230900 11014KT 4SM TSRA OVC010CB=



000
FTUS44 KJAN 221100
TAFJAN
TAF
KJAN 221137Z 2212/2312 14008KT P6SM SCT150
     FM230500 13010KT P6SM BKN010 BKN035
     FM231000 14013KT 4SM TSRA OVC010CB=



000
FTUS44 KJAN 221100
TAFHBG
TAF
KHBG 221137Z 2212/2312 13008KT P6SM SCT050 SCT150
     FM230300 14010KT P6SM BKN008 OVC025=



000
FTUS44 KJAN 220500
TAFGLH
TAF
KGLH 220538Z 2206/2306 14006KT P6SM BKN080
     FM221500 15011KT P6SM BKN080=



000
FTUS44 KJAN 220500
TAFJAN
TAF
KJAN 220538Z 2206/2306 14005KT P6SM BKN100
     FM221500 14010KT P6SM SCT025 BKN100
     FM230200 13010KT P6SM OVC025=



000
FTUS44 KJAN 220500
TAFGWO
TAF
KGWO 220538Z 2206/2306 14005KT P6SM BKN080
     FM221300 14011KT P6SM BKN100=



000
FTUS44 KJAN 220500
TAFMEI
TAF
KMEI 220538Z 2206/2306 13003KT P6SM BKN100
     FM221500 13010KT P6SM SCT025 BKN100
     FM230200 15009KT P6SM OVC025=



000
FTUS44 KJAN 220500
TAFHBG
TAF
KHBG 220538Z 2206/2306 14003KT P6SM SCT100
     FM221500 13008KT P6SM SCT030 BKN150
     FM222000 13009KT P6SM BKN035
     FM230200 12008KT P6SM OVC015=



000
FTUS44 KJAN 212300
TAFGWO
TAF
KGWO 212323Z 2200/2224 14005KT P6SM BKN080
     FM221300 14008KT P6SM BKN100
     FM221700 15011KT P6SM SCT100 BKN250=



000
FTUS44 KJAN 212300
TAFGLH
TAF
KGLH 212323Z 2200/2224 14006KT P6SM BKN080
     FM221500 15011KT P6SM BKN080=



000
FTUS44 KJAN 212300
TAFHBG
TAF
KHBG 212323Z 2200/2224 14003KT P6SM SCT100
     FM221500 13008KT P6SM SCT030 BKN150
     FM222000 13009KT P6SM BKN035=



000
FTUS44 KJAN 212300
TAFMEI
TAF
KMEI 212323Z 2200/2224 13003KT P6SM BKN100
     FM221500 13010KT P6SM SCT025 BKN100=



000
FTUS44 KJAN 212300
TAFJAN
TAF
KJAN 212323Z 2200/2224 14005KT P6SM BKN100
     FM221500 14010KT P6SM SCT025 BKN100=



000
FTUS44 KJAN 211700
TAFGLH
TAF
KGLH 211733Z 2118/2218 15006KT P6SM SCT070 BKN100
     FM220000 13006KT P6SM BKN070
     FM221500 14011KT P6SM BKN050=



000
FTUS44 KJAN 211700
TAFHBG
TAF
KHBG 211733Z 2118/2218 14005KT P6SM SKC=



000
FTUS44 KJAN 211700
TAFGWO
TAF
KGWO 211733Z 2118/2218 16006KT P6SM SCT120
     FM220000 12004KT P6SM BKN070
     FM221500 14011KT P6SM BKN100=



000
FTUS44 KJAN 211700
TAFJAN
TAF
KJAN 211733Z 2118/2218 16007KT P6SM FEW200
     FM221500 13011KT P6SM SCT120=



000
FTUS44 KJAN 211700
TAFMEI
TAF
KMEI 211733Z 2118/2218 14006KT P6SM SKC
     FM221500 12009KT P6SM SCT250=



000
FTUS44 KJAN 211100
TAFJAN
TAF
KJAN 211140Z 2112/2212 00000KT P6SM SCT060
     FM211500 14007KT P6SM SCT050 BKN200
     FM220000 12004KT P6SM SCT050 BKN100=



000
FTUS44 KJAN 211100
TAFMEI
TAF
KMEI 211140Z 2112/2212 00000KT P6SM FEW080
     FM211400 13006KT P6SM SCT050 BKN200
     FM220000 12003KT P6SM SCT050 BKN200=



000
FTUS44 KJAN 211100
TAFGWO
TAF
KGWO 211140Z 2112/2212 12006KT P6SM BKN060 OVC080
     FM220000 12004KT P6SM BKN050=



000
FTUS44 KJAN 211100
TAFHBG
TAF
KHBG 211140Z 2112/2212 00000KT P6SM SKC
     FM211500 12006KT P6SM SCT050 BKN200
     FM220000 15002KT P6SM SCT050 BKN200=



000
FTUS44 KJAN 211100
TAFGLH
TAF
KGLH 211140Z 2112/2212 14008KT P6SM SCT060 OVC080
     FM220000 12006KT P6SM BKN050=



000
FTUS44 KJAN 210800 AAA
TAFMEI
TAF AMD
KMEI 210822Z 2108/2206 19006KT P6SM SKC
     FM211400 13006KT P6SM SCT050 BKN250=



000
FTUS44 KJAN 210700 RRA
TAFJAN
TAF
KJAN 210708Z 2107/2206 15003KT P6SM SKC
     FM211500 14007KT P6SM SCT050 BKN100=



000
FTUS44 KJAN 210700 RRA
TAFGWO
TAF
KGWO 210708Z 2107/2206 15004KT P6SM BKN060 OVC080
     FM211600 13006KT P6SM SCT050 BKN100=



000
FTUS44 KJAN 210700 RRA
TAFHBG
TAF
KHBG 210708Z 2107/2206 00000KT P6SM SKC
     FM211400 00000KT 4SM BR SCT050 BKN250
     FM211500 12006KT P6SM SCT050 BKN250=



000
FTUS44 KJAN 210700 RRA
TAFGLH
TAF
KGLH 210708Z 2107/2206 11004KT P6SM BKN060 OVC080
     FM211500 14008KT P6SM SCT050 BKN100=



000
FTUS44 KJAN 210700 RRA
TAFMEI
TAF
KMEI 210708Z 2107/2206 00000KT 4SM BR SKC
     FM211400 13006KT P6SM SCT050 BKN250=



    US Dept of Commerce
    National Oceanic and Atmospheric Administration
    National Weather Service
    1325 East West Highway
    Silver Spring, MD 20910
    Page Author: NWS Internet Services Team
Disclaimer
Information Quality
Credits
Glossary
Privacy Policy
Freedom of Information Act (FOIA)
About Us
Career Opportunities